Time;durP1;ratioP1;P1;durP2;ratioP2;P2;SDS_P1;SDS_P2;PMS_P1;PMS_P2;Temp;Humidity;BMP_temperature;BMP_pressure;BME280_temperature;BME280_humidity;BME280_pressure;Samples;Min_cycle;Max_cycle;Signal;HPM_P1;HPM_P2
2022/10/29 00:07:17;;;;;;;0.20;0.10;;;15.00;99.90;;;;;;25536177;23;20365;-69
2022/10/29 00:17:39;;;;;;;0.20;0.00;;;15.10;99.90;;;;;;25483692;23;20384;-69
2022/10/29 00:27:43;;;;;;;0.20;0.00;;;14.80;99.90;;;;;;25535663;23;20369;-70
2022/10/29 00:37:50;;;;;;;0.20;0.00;;;14.70;99.90;;;;;;25536138;23;20381;-70
2022/10/29 00:47:55;;;;;;;0.20;0.00;;;14.80;99.90;;;;;;25507173;23;20849;-72
2022/10/29 00:58:00;;;;;;;0.20;0.08;;;14.90;99.90;;;;;;25533583;23;20373;-71
2022/10/29 01:08:22;;;;;;;0.20;0.00;;;14.60;99.90;;;;;;25535188;23;20381;-71
2022/10/29 01:18:35;;;;;;;0.20;0.00;;;14.70;99.90;;;;;;25532618;23;20392;-71
2022/10/29 01:28:56;;;;;;;0.20;0.00;;;14.70;99.90;;;;;;25533603;23;20425;-70
2022/10/29 01:39:07;;;;;;;0.20;0.00;;;14.50;99.90;;;;;;25508426;23;20376;-71
2022/10/29 01:49:15;;;;;;;0.20;0.10;;;14.40;99.90;;;;;;25534027;23;20361;-69
2022/10/29 01:59:20;;;;;;;0.20;0.00;;;14.30;99.90;;;;;;25534438;23;20373;-70
2022/10/29 02:09:46;;;;;;;0.20;0.00;;;14.10;99.90;;;;;;25532298;23;20388;-69
2022/10/29 02:20:12;;;;;;;0.20;0.07;;;14.00;99.90;;;;;;25533847;23;20400;-69
2022/10/29 02:30:16;;;;;;;0.20;0.00;;;14.00;99.90;;;;;;25505357;23;20396;-70
2022/10/29 02:40:22;;;;;;;0.20;0.10;;;14.10;99.90;;;;;;25531640;23;20380;-70
2022/10/29 02:50:25;;;;;;;0.20;0.10;;;14.00;99.90;;;;;;25540960;23;20380;-70
2022/10/29 03:00:31;;;;;;;0.20;0.00;;;13.90;99.90;;;;;;25539321;23;20380;-68
2022/10/29 03:10:34;;;;;;;0.20;0.00;;;14.00;99.90;;;;;;25539398;23;20377;-70
2022/10/29 03:21:00;;;;;;;0.20;0.10;;;13.90;99.90;;;;;;25536999;23;20388;-68
2022/10/29 03:31:04;;;;;;;0.20;0.10;;;13.90;99.90;;;;;;25510737;23;20377;-70
2022/10/29 03:41:26;;;;;;;0.20;0.00;;;14.00;99.90;;;;;;25538499;23;20369;-70
2022/10/29 03:51:48;;;;;;;0.20;0.10;;;14.00;99.90;;;;;;25535533;23;20445;-70
2022/10/29 04:01:53;;;;;;;0.20;0.10;;;14.10;99.90;;;;;;25536226;23;20419;-70
2022/10/29 04:11:57;;;;;;;0.20;0.03;;;14.00;99.90;;;;;;25538078;23;20407;-70
2022/10/29 04:22:02;;;;;;;0.20;0.07;;;14.00;99.90;;;;;;25536189;23;20373;-69
2022/10/29 04:32:27;;;;;;;0.20;0.10;;;13.90;99.90;;;;;;25534814;23;20405;-69
2022/10/29 04:42:36;;;;;;;0.20;0.10;;;13.80;99.90;;;;;;25536095;23;20372;-69
2022/10/29 04:52:58;;;;;;;0.20;0.10;;;13.70;99.90;;;;;;25532358;23;20381;-69
2022/10/29 05:03:04;;;;;;;0.20;0.10;;;13.80;99.90;;;;;;25536167;23;20433;-71
2022/10/29 05:13:10;;;;;;;0.20;0.10;;;13.70;99.90;;;;;;25507069;23;20405;-69
2022/10/29 05:23:15;;;;;;;0.20;0.03;;;13.80;99.90;;;;;;25509888;23;20381;-69
2022/10/29 05:33:21;;;;;;;0.20;0.10;;;13.70;99.90;;;;;;25530724;23;20374;-70
2022/10/29 05:43:43;;;;;;;0.20;0.10;;;13.80;99.90;;;;;;25507977;23;20392;-69
2022/10/29 05:53:47;;;;;;;0.20;0.10;;;13.90;99.90;;;;;;25505111;23;20381;-69
2022/10/29 06:03:53;;;;;;;0.20;0.10;;;13.70;99.90;;;;;;25533078;23;20369;-69
2022/10/29 06:13:57;;;;;;;0.20;0.10;;;13.70;99.90;;;;;;25531860;23;20404;-70
2022/10/29 06:24:19;;;;;;;0.20;0.10;;;13.60;99.90;;;;;;25538727;23;20361;-70
2022/10/29 06:34:23;;;;;;;0.20;0.00;;;13.60;99.90;;;;;;25539502;23;20383;-70
2022/10/29 06:44:28;;;;;;;0.20;0.10;;;13.70;99.90;;;;;;25539703;23;20376;-73
2022/10/29 06:54:32;;;;;;;0.20;0.00;;;13.90;99.90;;;;;;25539190;23;20369;-71
2022/10/29 07:04:54;;;;;;;0.20;0.00;;;14.10;99.90;;;;;;25538662;23;20369;-70
2022/10/29 07:14:58;;;;;;;0.20;0.00;;;14.30;99.90;;;;;;25536967;23;20373;-73
2022/10/29 07:25:08;;;;;;;0.20;0.00;;;14.90;99.90;;;;;;25538042;23;20370;-72
2022/10/29 07:35:11;;;;;;;0.20;0.10;;;15.30;99.90;;;;;;25508564;23;20412;-72
2022/10/29 07:45:17;;;;;;;0.20;0.00;;;16.00;99.90;;;;;;25534554;23;20461;-73
2022/10/29 07:55:21;;;;;;;0.20;0.10;;;16.40;99.90;;;;;;25534765;23;20381;-71
2022/10/29 08:05:27;;;;;;;0.20;0.10;;;16.70;99.90;;;;;;25531543;23;20370;-75
2022/10/29 08:15:33;;;;;;;0.20;0.00;;;17.30;99.90;;;;;;25510031;23;20410;-73
2022/10/29 08:25:40;;;;;;;0.20;0.00;;;18.00;99.90;;;;;;25505145;23;20472;-73
2022/10/29 08:36:01;;;;;;;0.20;0.00;;;18.90;99.90;;;;;;25530610;23;20405;-73
2022/10/29 08:46:18;;;;;;;0.20;0.03;;;19.40;99.90;;;;;;25532039;23;20369;-70
2022/10/29 08:56:25;;;;;;;0.20;0.10;;;19.80;99.90;;;;;;25504932;23;20389;-73
2022/10/29 09:07:01;;;;;;;0.20;0.00;;;19.50;99.90;;;;;;25530274;23;20418;-73
2022/10/29 09:17:19;;;;;;;0.20;0.00;;;19.60;99.90;;;;;;25503455;23;20373;-72
2022/10/29 09:27:29;;;;;;;0.20;0.00;;;19.80;99.90;;;;;;25531589;23;20361;-69
2022/10/29 09:37:42;;;;;;;0.20;0.00;;;19.90;99.90;;;;;;25506259;23;20388;-73
2022/10/29 09:47:59;;;;;;;0.20;0.00;;;20.40;99.90;;;;;;25499993;23;21307;-71
2022/10/29 09:58:03;;;;;;;0.20;0.10;;;21.30;99.90;;;;;;25500232;23;20455;-69
2022/10/29 10:08:11;;;;;;;0.20;0.10;;;21.80;99.90;;;;;;25526902;23;20373;-71
2022/10/29 10:18:19;;;;;;;0.20;0.07;;;21.60;99.90;;;;;;25518330;23;20488;-70
2022/10/29 10:28:25;;;;;;;0.20;0.00;;;21.50;99.90;;;;;;25520990;23;20365;-68
2022/10/29 10:38:29;;;;;;;0.20;0.00;;;21.90;99.90;;;;;;25526874;23;20377;-71
2022/10/29 10:48:34;;;;;;;0.20;0.00;;;22.40;99.90;;;;;;25522720;23;20369;-71
2022/10/29 10:59:05;;;;;;;0.20;0.00;;;22.80;99.90;;;;;;25526929;23;20416;-71
2022/10/29 11:09:18;;;;;;;0.20;0.00;;;22.40;99.90;;;;;;25504755;23;20415;-71
2022/10/29 11:19:27;;;;;;;0.20;0.10;;;23.20;99.90;;;;;;25480550;23;20412;-71
2022/10/29 11:29:45;;;;;;;0.20;0.00;;;23.00;99.90;;;;;;25507041;23;20392;-70
2022/10/29 11:39:57;;;;;;;0.20;0.03;;;22.60;99.90;;;;;;25505154;23;20369;-70
2022/10/29 11:50:20;;;;;;;0.20;0.00;;;23.20;99.90;;;;;;25529831;23;20369;-68
2022/10/29 12:00:26;;;;;;;0.20;0.00;;;23.30;99.90;;;;;;25505196;23;20471;-67
2022/10/29 12:10:50;;;;;;;0.20;0.07;;;22.90;99.90;;;;;;25528383;23;20365;-69
2022/10/29 12:21:01;;;;;;;0.20;0.00;;;23.00;99.90;;;;;;25528968;23;20380;-69
2022/10/29 12:31:16;;;;;;;0.20;0.10;;;23.10;99.90;;;;;;25501743;23;20437;-73
2022/10/29 12:41:42;;;;;;;0.20;0.00;;;23.40;99.90;;;;;;25528557;23;20365;-69
2022/10/29 12:52:09;;;;;;;0.20;0.00;;;23.10;99.90;;;;;;25524798;23;20401;-68
2022/10/29 13:02:44;;;;;;;0.20;0.00;;;23.00;99.90;;;;;;25524740;23;20397;-70
2022/10/29 13:13:01;;;;;;;0.20;0.00;;;22.80;99.90;;;;;;25498570;23;20381;-69
2022/10/29 13:23:33;;;;;;;0.20;0.00;;;22.90;99.90;;;;;;25498719;23;20365;-69
2022/10/29 13:33:51;;;;;;;0.20;0.00;;;23.00;99.90;;;;;;25525094;23;20380;-70
2022/10/29 13:44:00;;;;;;;0.20;0.00;;;23.30;99.90;;;;;;25522468;23;20369;-69
2022/10/29 13:54:11;;;;;;;0.20;0.00;;;23.30;99.90;;;;;;25524256;23;20380;-71
2022/10/29 14:04:23;;;;;;;0.20;0.00;;;23.30;99.90;;;;;;25495683;23;20373;-69
2022/10/29 14:14:36;;;;;;;0.20;0.00;;;22.50;99.90;;;;;;25498823;23;20365;-70
2022/10/29 14:24:40;;;;;;;0.20;0.00;;;23.10;99.90;;;;;;25500254;23;20372;-68
2022/10/29 14:34:49;;;;;;;0.20;0.10;;;23.30;99.90;;;;;;25526895;23;20369;-68
2022/10/29 14:44:55;;;;;;;0.20;0.00;;;23.80;99.90;;;;;;25509442;23;20473;-70
2022/10/29 14:55:06;;;;;;;0.20;0.00;;;23.20;99.90;;;;;;25506717;23;20385;-70
2022/10/29 15:05:24;;;;;;;0.20;0.00;;;22.50;99.90;;;;;;25482572;23;20357;-70
2022/10/29 15:15:30;;;;;;;0.20;0.00;;;22.00;99.90;;;;;;25505037;23;20377;-71
2022/10/29 15:25:37;;;;;;;0.20;0.00;;;21.50;99.90;;;;;;25522753;23;20390;-70
2022/10/29 15:35:48;;;;;;;0.20;0.00;;;21.20;99.90;;;;;;25507105;23;20382;-69
2022/10/29 15:46:11;;;;;;;0.20;0.00;;;21.00;99.90;;;;;;25527015;23;20361;-71
2022/10/29 15:56:16;;;;;;;0.20;0.00;;;21.00;99.90;;;;;;25531634;23;20388;-70
2022/10/29 16:06:20;;;;;;;0.20;0.00;;;20.90;99.90;;;;;;25527204;23;20517;-71
2022/10/29 16:16:25;;;;;;;0.20;0.00;;;20.90;99.90;;;;;;25530229;23;20385;-70
2022/10/29 16:26:29;;;;;;;0.20;0.00;;;20.80;99.90;;;;;;25507398;23;20357;-71
2022/10/29 16:36:35;;;;;;;0.20;0.00;;;20.60;99.90;;;;;;25533812;23;20385;-71
2022/10/29 16:46:38;;;;;;;0.20;0.00;;;20.20;99.90;;;;;;25531442;23;20380;-71
2022/10/29 16:57:01;;;;;;;0.20;0.10;;;19.90;99.90;;;;;;25531641;23;20381;-71
2022/10/29 17:07:05;;;;;;;0.20;0.00;;;19.80;99.90;;;;;;25502918;23;20376;-71
2022/10/29 17:17:11;;;;;;;0.20;0.00;;;19.60;99.90;;;;;;25504735;23;20796;-71
2022/10/29 17:27:19;;;;;;;0.20;0.00;;;19.30;99.90;;;;;;25502874;23;20362;-72
2022/10/29 17:37:25;;;;;;;0.20;0.10;;;19.10;99.90;;;;;;25527189;23;20377;-71
2022/10/29 17:47:29;;;;;;;0.20;0.00;;;19.10;99.90;;;;;;25528624;23;20373;-71
2022/10/29 17:57:34;;;;;;;0.20;0.00;;;18.80;99.90;;;;;;25528759;23;20428;-71
2022/10/29 18:07:55;;;;;;;0.20;0.00;;;18.80;99.90;;;;;;25527356;23;20373;-70
2022/10/29 18:18:01;;;;;;;0.20;0.00;;;18.80;99.90;;;;;;25526515;23;20417;-71
2022/10/29 18:28:05;;;;;;;0.20;0.00;;;18.70;99.90;;;;;;25527891;23;20380;-71
2022/10/29 18:38:10;;;;;;;0.20;0.00;;;18.70;99.90;;;;;;25526183;23;20394;-72
2022/10/29 18:48:14;;;;;;;0.20;0.00;;;18.70;99.90;;;;;;25525747;23;20372;-73
2022/10/29 18:58:20;;;;;;;0.20;0.00;;;18.30;99.90;;;;;;25524069;23;20380;-72
2022/10/29 19:08:24;;;;;;;0.20;0.00;;;18.20;99.90;;;;;;25493826;23;20373;-72
2022/10/29 19:18:30;;;;;;;0.20;0.07;;;18.10;99.90;;;;;;25524499;23;20384;-72
2022/10/29 19:28:37;;;;;;;0.20;0.00;;;18.00;99.90;;;;;;25529190;23;20400;-72
2022/10/29 19:38:42;;;;;;;0.20;0.00;;;17.80;99.90;;;;;;25530876;23;20459;-72
2022/10/29 19:48:50;;;;;;;0.20;0.10;;;17.60;99.90;;;;;;25529333;23;20385;-70
2022/10/29 19:58:55;;;;;;;0.20;0.10;;;17.50;99.90;;;;;;25531393;23;20397;-73
2022/10/29 20:08:59;;;;;;;0.20;0.00;;;17.40;99.90;;;;;;25507210;23;20369;-72
2022/10/29 20:19:04;;;;;;;0.20;0.00;;;17.30;99.90;;;;;;25502329;23;20385;-72
2022/10/29 20:29:36;;;;;;;0.20;0.00;;;17.40;99.90;;;;;;25527760;23;20472;-71
2022/10/29 20:39:45;;;;;;;0.20;0.10;;;17.50;99.90;;;;;;25503374;23;20565;-71
2022/10/29 20:49:49;;;;;;;0.20;0.00;;;17.50;99.90;;;;;;25502593;23;20389;-71
2022/10/29 20:59:54;;;;;;;0.20;0.00;;;17.40;99.90;;;;;;25528819;23;20380;-71
2022/10/29 21:09:58;;;;;;;0.20;0.00;;;17.40;99.90;;;;;;25526465;23;20373;-69
2022/10/29 21:20:04;;;;;;;0.20;0.00;;;17.50;99.90;;;;;;25528570;23;20394;-71
2022/10/29 21:30:09;;;;;;;0.20;0.00;;;17.70;99.90;;;;;;25501888;23;20361;-72
2022/10/29 21:40:17;;;;;;;0.20;0.00;;;17.80;99.90;;;;;;25528850;23;21202;-71
2022/10/29 21:50:21;;;;;;;0.20;0.00;;;17.90;99.90;;;;;;25529549;23;20369;-72
2022/10/29 22:00:27;;;;;;;0.20;0.00;;;17.90;99.90;;;;;;25503545;23;20376;-71
2022/10/29 22:10:31;;;;;;;0.20;0.00;;;17.80;99.90;;;;;;25476875;23;20481;-72
2022/10/29 22:20:42;;;;;;;0.20;0.00;;;18.00;99.90;;;;;;25507526;23;20381;-72
2022/10/29 22:30:45;;;;;;;0.20;0.10;;;18.10;99.90;;;;;;25507064;23;20389;-70
2022/10/29 22:40:56;;;;;;;0.20;0.00;;;18.20;99.90;;;;;;25530502;23;20387;-71
2022/10/29 22:51:13;;;;;;;0.20;0.00;;;18.30;99.90;;;;;;25505110;23;20402;-71
2022/10/29 23:01:20;;;;;;;0.20;0.00;;;18.30;99.90;;;;;;25535820;23;20377;-72
2022/10/29 23:11:26;;;;;;;0.20;0.00;;;18.40;99.90;;;;;;25511152;23;21015;-73
2022/10/29 23:21:31;;;;;;;0.20;0.00;;;18.30;99.90;;;;;;25511928;23;20518;-72
2022/10/29 23:31:52;;;;;;;0.20;0.00;;;18.30;99.90;;;;;;25538863;23;20377;-72
2022/10/29 23:41:57;;;;;;;0.20;0.00;;;18.10;99.90;;;;;;25538677;23;20373;-71
2022/10/29 23:52:19;;;;;;;0.20;0.00;;;18.10;99.90;;;;;;25536689;23;20362;-72
